Time;durP1;ratioP1;P1;durP2;ratioP2;P2;SDS_P1;SDS_P2;PMS_P1;PMS_P2;Temp;Humidity;BMP_temperature;BMP_pressure;BME280_temperature;BME280_humidity;BME280_pressure;Samples;Min_cycle;Max_cycle;Signal;HPM_P1;HPM_P2
2022/03/16 00:01:08;;;;;;;13.90;6.00;;;;;;;-8.16;49.13;100885.03;4946998;29;20023;-83
2022/03/16 00:03:33;;;;;;;10.88;4.90;;;;;;;-8.31;48.71;100885.59;4976743;29;20058;-83
2022/03/16 00:05:59;;;;;;;13.32;6.50;;;;;;;-8.34;49.32;100889.84;4969241;29;20051;-83
2022/03/16 00:08:28;;;;;;;17.40;6.40;;;;;;;-8.35;49.22;100888.06;4964228;29;20447;-83
2022/03/16 00:10:56;;;;;;;12.15;6.25;;;;;;;-8.40;49.25;100884.53;4940031;29;20047;-83
2022/03/16 00:13:21;;;;;;;17.35;5.18;;;;;;;-8.43;49.22;100892.25;4957178;28;20078;-82
2022/03/16 00:15:50;;;;;;;13.07;5.50;;;;;;;-8.45;49.40;100892.22;4957777;28;20499;-83
2022/03/16 00:18:16;;;;;;;15.95;6.90;;;;;;;-8.44;49.24;100898.28;4940072;29;20122;-83
2022/03/16 00:20:42;;;;;;;18.33;6.03;;;;;;;-8.40;49.39;100900.09;4923685;29;20087;-84
2022/03/16 00:23:10;;;;;;;14.85;5.53;;;;;;;-8.46;49.39;100898.25;4955801;29;20051;-84
2022/03/16 00:25:36;;;;;;;13.32;5.57;;;;;;;-8.46;49.26;100899.97;4956767;29;20513;-84
2022/03/16 00:28:02;;;;;;;17.45;6.03;;;;;;;-8.51;49.28;100886.03;4955437;29;20043;-84
2022/03/16 00:30:27;;;;;;;14.48;6.28;;;;;;;-8.51;49.49;100899.00;4939175;29;20376;-81
2022/03/16 00:32:54;;;;;;;16.05;5.47;;;;;;;-8.55;49.57;100895.44;4956351;29;20043;-83
2022/03/16 00:35:25;;;;;;;12.35;6.03;;;;;;;-8.59;49.52;100886.72;4939244;29;20186;-82
2022/03/16 00:37:51;;;;;;;15.70;5.90;;;;;;;-8.56;49.46;100904.09;4955045;29;20043;-86
2022/03/16 00:40:20;;;;;;;14.60;5.70;;;;;;;-8.64;49.52;100885.75;4923297;29;20053;-86
2022/03/16 00:42:52;;;;;;;16.48;6.25;;;;;;;-8.64;49.55;100898.72;4938996;29;20043;-84
2022/03/16 00:45:25;;;;;;;10.98;5.97;;;;;;;-8.63;49.36;100904.78;4955913;29;20413;-84
2022/03/16 00:47:52;;;;;;;15.35;5.93;;;;;;;-8.69;49.57;100904.63;4938878;29;20055;-85
2022/03/16 00:50:18;;;;;;;16.00;6.22;;;;;;;-8.74;49.67;100899.34;4956599;28;20488;-89
2022/03/16 00:52:44;;;;;;;17.00;6.20;;;;;;;-8.72;49.31;100913.22;4956449;29;20085;-89
2022/03/16 00:55:10;;;;;;;25.67;6.70;;;;;;;-8.76;49.50;100906.22;4939291;29;20078;-87
2022/03/16 00:57:37;;;;;;;18.30;6.72;;;;;;;-8.80;49.64;100914.75;4956171;29;20047;-89
2022/03/16 01:00:07;;;;;;;13.35;6.50;;;;;;;-8.88;49.79;100916.28;4939159;29;20054;-85
2022/03/16 01:02:33;;;;;;;13.15;6.22;;;;;;;-8.92;49.77;100914.47;4922036;29;20044;-87
2022/03/16 01:04:59;;;;;;;14.30;5.88;;;;;;;-8.95;49.96;100922.16;4938585;29;20490;-85
2022/03/16 01:07:25;;;;;;;13.30;6.25;;;;;;;-8.99;50.00;100912.56;4955841;29;20039;-83
2022/03/16 01:09:54;;;;;;;13.45;7.50;;;;;;;-9.00;49.88;100916.00;4955913;29;20051;-85
2022/03/16 01:12:23;;;;;;;12.65;6.10;;;;;;;-9.05;50.01;100919.34;4947163;29;20058;-86
2022/03/16 01:14:52;;;;;;;21.17;6.70;;;;;;;-9.03;50.12;100926.28;4956510;29;20098;-85
2022/03/16 01:17:18;;;;;;;16.58;7.18;;;;;;;-9.15;50.18;100919.97;4938469;29;20403;-87
2022/03/16 01:19:43;;;;;;;15.60;7.05;;;;;;;-9.13;50.19;100926.06;4954428;29;20055;-86
2022/03/16 01:22:10;;;;;;;13.90;6.57;;;;;;;-9.17;50.36;100934.59;4955480;29;20050;-87
2022/03/16 01:24:37;;;;;;;18.02;8.10;;;;;;;-9.18;50.50;100935.41;4955031;29;20081;-86
2022/03/16 01:27:03;;;;;;;21.10;7.55;;;;;;;-9.20;50.77;100939.72;4956465;29;20094;-86
2022/03/16 01:29:31;;;;;;;15.73;6.82;;;;;;;-9.24;50.74;100940.47;4941229;29;20499;-89
2022/03/16 01:31:57;;;;;;;21.55;6.40;;;;;;;-9.28;50.89;100940.34;4938944;29;20085;-87
2022/03/16 01:34:24;;;;;;;19.35;6.97;;;;;;;-9.33;50.95;100950.56;4938528;29;20133;-89
2022/03/16 01:36:50;;;;;;;17.25;7.53;;;;;;;-9.34;51.04;100951.41;4955554;29;20047;-86
2022/03/16 01:39:19;;;;;;;21.02;7.50;;;;;;;-9.39;51.07;100943.53;4955153;29;20077;-85
2022/03/16 01:41:48;;;;;;;;;;;;;;;-9.36;51.13;100943.63;4923316;29;20491;-84
2022/03/16 01:44:17;;;;;;;18.10;6.75;;;;;;;-9.43;51.07;100940.84;4938693;29;19918;-92
2022/03/16 01:46:43;;;;;;;13.20;6.97;;;;;;;-9.47;51.27;100944.19;4955418;29;20043;-83
2022/03/16 01:49:09;;;;;;;31.65;7.00;;;;;;;-9.47;51.52;100939.88;4955885;28;20392;-83
2022/03/16 01:51:36;;;;;;;22.20;7.85;;;;;;;-9.51;51.45;100943.22;4955544;29;20130;-87
2022/03/16 01:54:02;;;;;;;13.70;6.75;;;;;;;-9.51;51.38;100938.03;4939314;29;20055;-86
2022/03/16 01:56:29;;;;;;;17.92;6.88;;;;;;;-9.50;51.33;100944.09;4923107;29;20054;-87
2022/03/16 01:58:55;;;;;;;13.88;6.85;;;;;;;-9.58;51.22;100944.75;4964621;29;20074;-85
2022/03/16 02:01:20;;;;;;;15.93;7.03;;;;;;;-9.55;51.50;100941.38;4932087;29;20070;-86
2022/03/16 02:04:20;;;;;;;18.25;7.45;;;;;;;-9.61;51.25;100936.91;4938523;29;20047;-83
2022/03/16 02:06:46;;;;;;;;;;;;;;;-9.61;51.49;100942.09;4920262;29;20051;-83
2022/03/16 02:09:12;;;;;;;18.85;6.13;;;;;;;-9.65;51.67;100945.44;4951567;29;20417;-85
2022/03/16 02:11:38;;;;;;;18.38;7.50;;;;;;;-9.75;51.66;100933.06;4955088;29;20126;-80
2022/03/16 02:14:04;;;;;;;25.60;7.30;;;;;;;-9.66;51.65;100948.88;4955155;29;20521;-84
2022/03/16 02:16:36;;;;;;;20.58;7.20;;;;;;;-9.63;51.50;100955.81;4954874;29;20543;-89
2022/03/16 02:19:02;;;;;;;35.95;7.10;;;;;;;-9.69;51.77;100948.78;4937580;29;20553;-85
2022/03/16 02:21:30;;;;;;;17.38;7.07;;;;;;;-9.71;51.78;100942.66;4938005;29;20090;-84
2022/03/16 02:23:57;;;;;;;14.00;6.60;;;;;;;-9.67;52.55;100951.38;4937847;29;20043;-81
2022/03/16 02:26:26;;;;;;;37.35;8.57;;;;;;;-9.59;52.08;100966.31;4954954;29;20047;-82
2022/03/16 02:28:52;;;;;;;;;;;;;;;-9.57;51.82;100959.44;4937122;29;20499;-85
2022/03/16 02:31:18;;;;;;;21.17;6.40;;;;;;;-9.63;51.94;100958.41;4937092;29;19925;-83
2022/03/16 02:33:44;;;;;;;16.80;6.63;;;;;;;-9.64;51.90;100962.69;4938097;29;20047;-82
2022/03/16 02:36:11;;;;;;;16.25;6.95;;;;;;;-9.64;51.62;100965.28;4954261;29;20043;-82
2022/03/16 02:38:37;;;;;;;36.38;6.80;;;;;;;-9.64;51.86;100967.88;4954574;29;20058;-85
2022/03/16 02:41:03;;;;;;;19.02;8.43;;;;;;;-9.65;51.57;100962.69;4939023;29;20043;-89
2022/03/16 02:43:29;;;;;;;25.52;7.07;;;;;;;-9.74;51.64;100959.81;4922747;29;20047;-89
2022/03/16 02:45:56;;;;;;;25.90;6.40;;;;;;;-9.70;51.64;100978.06;4955693;29;20414;-77
2022/03/16 02:48:22;;;;;;;36.58;7.63;;;;;;;-9.65;51.58;100976.47;4938020;29;20043;-82
2022/03/16 02:50:49;;;;;;;17.13;6.80;;;;;;;-9.59;51.78;100970.59;4967794;28;20043;-81
2022/03/16 02:53:18;;;;;;;29.05;7.15;;;;;;;-9.52;51.36;100977.69;4969900;29;20161;-85
2022/03/16 02:55:44;;;;;;;21.67;6.82;;;;;;;-9.49;51.37;100976.91;4960115;29;20546;-83
2022/03/16 02:58:16;;;;;;;16.50;6.75;;;;;;;-9.49;51.32;100979.50;4922571;29;20086;-80
2022/03/16 03:00:43;;;;;;;16.95;6.63;;;;;;;-9.43;51.36;100979.66;4905435;29;20043;-86
2022/03/16 03:03:09;;;;;;;14.65;5.93;;;;;;;-9.37;51.05;100985.00;4921407;29;20102;-90
2022/03/16 03:05:35;;;;;;;12.90;6.07;;;;;;;-9.30;51.00;100985.19;4936908;29;20054;-82
2022/03/16 03:08:01;;;;;;;13.13;6.40;;;;;;;-9.26;50.83;100986.16;4955286;29;20051;-86
2022/03/16 03:10:27;;;;;;;18.30;6.82;;;;;;;-9.27;50.86;100984.41;4922788;29;20075;-80
2022/03/16 03:12:54;;;;;;;10.15;6.00;;;;;;;-9.22;50.71;100987.97;4940412;29;20415;-81
2022/03/16 03:15:20;;;;;;;14.43;6.70;;;;;;;-9.22;50.59;100987.97;4937518;29;20064;-80
2022/03/16 03:17:46;;;;;;;17.48;6.53;;;;;;;-9.08;50.60;101004.75;4938407;29;20094;-82
2022/03/16 03:20:17;;;;;;;18.17;6.82;;;;;;;-9.06;50.43;100999.66;4937380;29;20113;-81
2022/03/16 03:22:46;;;;;;;33.45;6.47;;;;;;;-9.00;50.13;100993.72;4921354;29;20084;-85
2022/03/16 03:25:23;;;;;;;21.33;6.60;;;;;;;-8.92;50.10;100998.25;4938434;29;20039;-88
2022/03/16 03:27:57;;;;;;;14.15;7.03;;;;;;;-8.83;49.85;101002.81;4939046;29;20046;-85
2022/03/16 03:30:29;;;;;;;17.40;6.55;;;;;;;-8.77;49.85;101002.94;4937120;29;20575;-83
2022/03/16 03:32:56;;;;;;;21.88;7.20;;;;;;;-8.70;49.94;100993.59;4937958;29;20486;-81
2022/03/16 03:35:22;;;;;;;19.83;6.35;;;;;;;-8.56;49.65;100998.28;4924068;29;20040;-86
2022/03/16 03:37:48;;;;;;;15.60;6.53;;;;;;;-8.37;48.80;101009.09;4921869;29;20047;-81
2022/03/16 03:40:14;;;;;;;16.88;6.82;;;;;;;-8.35;48.54;101008.25;4938168;29;20047;-84
2022/03/16 03:42:40;;;;;;;17.13;7.38;;;;;;;-8.37;48.72;100996.13;4905061;29;20119;-84
2022/03/16 03:45:06;;;;;;;38.00;7.38;;;;;;;-8.23;48.41;101018.03;4921168;29;20054;-82
2022/03/16 03:47:32;;;;;;;15.93;7.10;;;;;;;-8.21;48.29;101005.09;4936580;29;20047;-79
2022/03/16 03:49:58;;;;;;;26.45;6.72;;;;;;;-8.10;47.99;101020.06;4937138;29;20047;-86
2022/03/16 03:52:24;;;;;;;14.10;7.35;;;;;;;-7.99;48.06;101022.03;4937538;29;20047;-87
2022/03/16 03:54:50;;;;;;;14.32;6.18;;;;;;;-7.94;47.70;101025.56;4920764;29;20130;-85
2022/03/16 03:57:16;;;;;;;24.00;7.28;;;;;;;-7.90;47.61;101035.19;4937895;29;20055;-81
2022/03/16 03:59:43;;;;;;;28.60;7.13;;;;;;;-7.86;47.16;101035.31;4937439;29;20411;-86
2022/03/16 04:02:09;;;;;;;16.00;6.07;;;;;;;-7.81;46.64;101032.81;4921146;29;20044;-86
2022/03/16 04:04:35;;;;;;;12.85;6.85;;;;;;;-7.67;47.04;101028.78;4936519;29;20054;-89
2022/03/16 04:07:01;;;;;;;16.08;7.10;;;;;;;-7.56;46.61;101028.97;4937035;29;20043;-86
2022/03/16 04:09:27;;;;;;;17.88;7.07;;;;;;;-7.38;46.35;101031.06;4936851;29;20071;-83
2022/03/16 04:11:53;;;;;;;18.40;7.53;;;;;;;-7.35;46.05;101028.53;4936352;29;20043;-85
2022/03/16 04:14:19;;;;;;;25.58;7.72;;;;;;;-7.42;45.62;101021.47;4938113;29;20147;-93
2022/03/16 04:16:45;;;;;;;24.88;7.68;;;;;;;-7.43;45.57;101030.13;4960071;29;20558;-89
2022/03/16 04:19:11;;;;;;;19.20;8.07;;;;;;;-7.29;46.13;101033.88;4959112;29;20050;-90
2022/03/16 04:21:37;;;;;;;19.80;7.22;;;;;;;-7.21;45.21;101042.69;4923817;29;20044;-88
2022/03/16 04:24:03;;;;;;;14.75;7.38;;;;;;;-7.09;45.56;101042.91;4925292;29;20142;-87
2022/03/16 04:26:28;;;;;;;13.88;7.05;;;;;;;-6.91;45.35;101038.91;4922919;29;20483;-88
2022/03/16 04:28:54;;;;;;;15.35;7.40;;;;;;;-6.90;45.20;101027.66;4936474;29;20539;-89
2022/03/16 04:31:21;;;;;;;19.13;6.78;;;;;;;-6.85;44.60;101034.66;4937901;29;20526;-88
2022/03/16 04:33:47;;;;;;;12.77;6.82;;;;;;;-6.85;44.59;101020.78;4936088;29;20040;-85
2022/03/16 04:36:13;;;;;;;19.60;8.65;;;;;;;-6.70;44.60;101049.66;4937282;29;20039;-88
2022/03/16 04:38:39;;;;;;;26.13;8.02;;;;;;;-6.73;44.65;101052.22;4936086;29;20052;-89
2022/03/16 04:41:04;;;;;;;16.65;7.65;;;;;;;-6.65;44.50;101053.22;4938216;29;20062;-88
2022/03/16 04:43:30;;;;;;;16.00;7.82;;;;;;;-6.56;43.84;101054.22;4940385;29;20051;-89
2022/03/16 04:45:56;;;;;;;14.00;6.82;;;;;;;-6.46;43.82;101057.00;4950044;29;20051;-88
2022/03/16 04:48:22;;;;;;;14.02;7.55;;;;;;;-6.40;43.67;101051.88;4941976;29;20087;-86
2022/03/16 04:50:48;;;;;;;21.38;7.22;;;;;;;-6.32;43.61;101059.81;4975713;29;20039;-88
2022/03/16 04:53:14;;;;;;;20.15;6.85;;;;;;;-6.36;43.32;101058.94;4946768;29;20083;-86
2022/03/16 04:55:40;;;;;;;21.27;7.82;;;;;;;-6.23;43.36;101049.56;4922354;29;20106;-89
2022/03/16 04:58:07;;;;;;;15.10;6.93;;;;;;;-6.15;43.29;101047.97;4938648;29;20035;-86
2022/03/16 05:00:34;;;;;;;16.77;8.13;;;;;;;-6.04;43.37;101049.84;4921818;29;20115;-88
2022/03/16 05:03:00;;;;;;;19.98;7.43;;;;;;;-6.01;43.03;101052.50;4954794;29;20056;-89
2022/03/16 05:05:26;;;;;;;19.17;7.82;;;;;;;-5.83;42.76;101054.44;4939584;29;20047;-87
2022/03/16 05:07:52;;;;;;;19.85;7.85;;;;;;;-5.76;42.92;101044.13;4921395;29;20047;-88
2022/03/16 05:10:17;;;;;;;21.55;8.07;;;;;;;-5.62;42.16;101042.59;4937129;29;20083;-87
2022/03/16 05:12:44;;;;;;;15.48;7.32;;;;;;;-5.57;42.02;101052.19;4937417;29;20492;-87
2022/03/16 05:15:15;;;;;;;22.33;7.82;;;;;;;-5.47;41.96;101056.66;4944848;29;20054;-86
2022/03/16 05:17:41;;;;;;;14.88;6.18;;;;;;;-5.46;41.75;101055.81;4940776;29;20495;-86
2022/03/16 05:20:08;;;;;;;16.67;6.75;;;;;;;-5.34;41.81;101055.06;4940325;29;20075;-83
2022/03/16 05:22:42;;;;;;;45.67;19.85;;;;;;;-5.21;41.80;101052.63;4937041;29;20106;-84
2022/03/16 05:25:10;;;;;;;16.60;8.15;;;;;;;-5.17;41.27;101049.22;4935486;29;20086;-88
2022/03/16 05:27:36;;;;;;;13.52;7.40;;;;;;;-5.10;40.66;101057.13;4919624;29;20055;-87
2022/03/16 05:30:03;;;;;;;15.63;8.02;;;;;;;-5.20;41.10;101070.03;4935255;29;20083;-86
2022/03/16 05:32:31;;;;;;;16.38;7.15;;;;;;;-5.17;41.05;101063.97;4935559;29;20083;-86
2022/03/16 05:34:57;;;;;;;22.10;8.10;;;;;;;-5.13;40.63;101061.41;4935357;29;20070;-87
2022/03/16 05:37:23;;;;;;;18.10;8.00;;;;;;;-5.08;40.67;101069.28;4936279;29;20423;-88
2022/03/16 05:39:49;;;;;;;24.65;7.85;;;;;;;-4.98;40.59;101075.50;4919024;29;20047;-87
2022/03/16 05:42:14;;;;;;;16.83;7.85;;;;;;;-4.84;40.70;101073.91;4919071;29;20043;-88
2022/03/16 05:44:40;;;;;;;19.40;7.32;;;;;;;-4.59;40.37;101080.22;4935341;29;20463;-87
2022/03/16 05:47:06;;;;;;;23.10;7.20;;;;;;;-4.57;39.84;101073.31;4919232;29;20052;-88
2022/03/16 05:49:32;;;;;;;18.23;7.95;;;;;;;-4.41;40.24;101079.53;4935753;29;20083;-86
2022/03/16 05:51:58;;;;;;;19.30;7.25;;;;;;;-4.27;40.25;101082.25;4934510;29;20510;-87
2022/03/16 05:54:24;;;;;;;14.70;7.38;;;;;;;-4.37;39.37;101070.84;4935037;29;20055;-87
2022/03/16 05:56:49;;;;;;;18.90;7.00;;;;;;;-4.20;39.75;101071.88;4950626;29;20047;-86
2022/03/16 05:59:15;;;;;;;24.20;7.70;;;;;;;-4.00;39.60;101077.22;4950699;29;20399;-86
2022/03/16 06:01:44;;;;;;;15.43;7.57;;;;;;;-3.87;38.46;101067.75;4934839;29;20419;-86
2022/03/16 06:04:10;;;;;;;19.77;7.68;;;;;;;-3.70;38.93;101076.56;4935713;29;20048;-87
2022/03/16 06:06:36;;;;;;;20.55;7.50;;;;;;;-3.67;39.15;101068.75;4934952;29;20147;-86
2022/03/16 06:09:04;;;;;;;23.48;8.38;;;;;;;-3.57;38.34;101077.53;4935096;29;20554;-88
2022/03/16 06:11:30;;;;;;;18.70;8.15;;;;;;;-3.73;38.87;101071.31;4934285;29;20047;-87
2022/03/16 06:13:56;;;;;;;20.33;8.27;;;;;;;-3.49;38.50;101080.16;4905409;29;20462;-87
2022/03/16 06:16:22;;;;;;;12.75;6.57;;;;;;;-3.32;37.96;101078.50;4922073;29;20043;-86
2022/03/16 06:18:48;;;;;;;21.15;8.00;;;;;;;-3.28;38.28;101080.25;4953699;29;20039;-86
2022/03/16 06:21:14;;;;;;;26.45;7.78;;;;;;;-2.98;38.53;101073.38;4953567;29;20472;-86
2022/03/16 06:23:40;;;;;;;22.48;7.70;;;;;;;-2.89;37.91;101070.81;4922135;29;20071;-87
2022/03/16 06:26:06;;;;;;;13.60;7.03;;;;;;;-2.95;37.91;101068.16;4953394;29;20039;-86
2022/03/16 06:28:32;;;;;;;24.25;8.32;;;;;;;-2.81;38.00;101087.41;4953476;29;20078;-87
2022/03/16 06:30:58;;;;;;;22.85;8.15;;;;;;;-2.58;38.16;101071.72;4953501;29;20475;-86
2022/03/16 06:33:24;;;;;;;21.77;8.23;;;;;;;-2.48;37.36;101064.78;4937377;29;20419;-86
2022/03/16 06:35:50;;;;;;;17.77;7.57;;;;;;;-2.30;37.07;101058.63;4938473;29;20043;-86
2022/03/16 06:38:16;;;;;;;14.80;6.07;;;;;;;-2.27;36.41;101064.75;4932715;29;20202;-87
2022/03/16 06:40:42;;;;;;;17.02;7.55;;;;;;;-2.27;35.75;101063.88;4974036;29;20043;-84
2022/03/16 06:43:08;;;;;;;16.77;7.45;;;;;;;-2.16;36.46;101061.28;4964214;29;20047;-88
2022/03/16 06:45:34;;;;;;;30.98;7.22;;;;;;;-1.89;36.88;101055.97;4940869;29;20094;-87
2022/03/16 06:48:01;;;;;;;22.35;7.82;;;;;;;-1.63;36.44;101063.78;4940958;29;20047;-86
2022/03/16 06:50:28;;;;;;;17.33;8.10;;;;;;;-1.50;36.08;101067.28;4940961;29;20113;-86
2022/03/16 06:52:56;;;;;;;16.67;7.80;;;;;;;-1.32;36.14;101058.44;4925533;29;20047;-85
2022/03/16 06:55:22;;;;;;;15.32;7.75;;;;;;;-1.26;35.69;101068.91;4958350;29;20074;-88
2022/03/16 06:57:49;;;;;;;14.60;6.97;;;;;;;-1.06;35.37;101061.81;4960456;29;20051;-85
2022/03/16 07:00:15;;;;;;;23.67;7.97;;;;;;;-1.26;35.40;101061.06;4941176;29;20518;-86
2022/03/16 07:02:56;;;;;;;23.80;7.82;;;;;;;-1.13;34.79;101064.47;4957831;29;20101;-87
2022/03/16 07:05:42;;;;;;;19.45;7.30;;;;;;;-0.89;35.17;101067.00;4941126;29;20135;-88
2022/03/16 07:08:12;;;;;;;17.60;7.35;;;;;;;-0.56;35.04;101075.56;4940643;29;20525;-87
2022/03/16 07:10:40;;;;;;;17.58;7.30;;;;;;;-0.32;35.01;101066.59;4958307;29;20044;-86
2022/03/16 07:13:11;;;;;;;13.73;6.40;;;;;;;-0.05;33.90;101065.50;4943725;29;20047;-86
2022/03/16 07:15:39;;;;;;;26.05;6.75;;;;;;;0.14;34.01;101071.47;4957590;29;20062;-88
2022/03/16 07:18:05;;;;;;;18.30;6.82;;;;;;;-0.02;32.78;101068.97;4940811;29;20087;-88
2022/03/16 07:20:32;;;;;;;10.77;5.15;;;;;;;-0.85;32.59;101076.59;4956436;29;20488;-87
2022/03/16 07:23:11;;;;;;;13.55;5.63;;;;;;;-1.27;33.80;101077.69;4958703;29;20047;-87
2022/03/16 07:25:42;;;;;;;14.30;5.88;;;;;;;-0.81;34.25;101073.06;4940655;29;20065;-87
2022/03/16 07:28:10;;;;;;;16.40;5.35;;;;;;;-0.48;34.08;101070.25;4940564;29;20503;-87
2022/03/16 07:30:38;;;;;;;16.02;5.95;;;;;;;-0.06;33.25;101069.03;4957660;29;20054;-86
2022/03/16 07:33:05;;;;;;;17.60;6.10;;;;;;;0.19;32.35;101070.53;4940325;29;20055;-86
2022/03/16 07:35:31;;;;;;;16.70;6.20;;;;;;;0.38;33.00;101070.34;4940633;29;20043;-87
2022/03/16 07:38:01;;;;;;;15.30;5.70;;;;;;;0.46;32.37;101079.03;4956646;29;20074;-88
2022/03/16 07:40:30;;;;;;;8.63;5.15;;;;;;;0.39;32.07;101072.09;4923861;29;20070;-87
2022/03/16 07:42:57;;;;;;;9.82;5.38;;;;;;;0.46;31.48;101073.78;4957769;29;20105;-88
2022/03/16 07:45:24;;;;;;;12.48;4.82;;;;;;;0.44;31.76;101076.41;4956968;29;20491;-86
2022/03/16 07:47:52;;;;;;;13.38;5.65;;;;;;;0.84;31.99;101075.09;4924260;29;20050;-89
2022/03/16 07:50:22;;;;;;;13.27;5.75;;;;;;;1.11;31.71;101064.19;4939952;29;20050;-87
2022/03/16 07:52:51;;;;;;;13.45;5.68;;;;;;;1.31;31.60;101071.78;4955952;29;20070;-86
2022/03/16 07:55:17;;;;;;;18.02;6.20;;;;;;;1.39;31.83;101071.69;4957336;28;20039;-86
2022/03/16 07:57:44;;;;;;;14.48;5.60;;;;;;;1.70;31.34;101075.59;4939770;29;20070;-87
2022/03/16 08:00:11;;;;;;;11.10;5.47;;;;;;;1.82;30.98;101084.22;4939862;29;20058;-88
2022/03/16 08:02:38;;;;;;;10.73;5.65;;;;;;;1.89;30.71;101070.03;4939684;29;20573;-88
2022/03/16 08:05:06;;;;;;;17.10;5.47;;;;;;;1.82;30.51;101065.75;4955755;29;20250;-87
2022/03/16 08:07:32;;;;;;;21.30;6.05;;;;;;;1.45;30.27;101063.69;4956836;29;20055;-86
2022/03/16 08:09:58;;;;;;;13.80;6.15;;;;;;;1.70;30.58;101069.47;4939588;29;20495;-87
2022/03/16 08:12:25;;;;;;;17.77;5.47;;;;;;;1.94;29.97;101074.31;4939433;29;20467;-87
2022/03/16 08:14:51;;;;;;;23.08;7.57;;;;;;;1.93;30.24;101072.59;4955308;29;20062;-86
2022/03/16 08:17:17;;;;;;;11.43;6.20;;;;;;;2.17;30.68;101075.69;4956576;29;20538;-86
2022/03/16 08:19:43;;;;;;;24.33;6.30;;;;;;;2.41;30.21;101069.13;4956825;29;20082;-87
2022/03/16 08:22:09;;;;;;;17.02;5.80;;;;;;;2.59;29.23;101066.09;4939456;29;20055;-87
2022/03/16 08:24:36;;;;;;;21.25;5.25;;;;;;;2.70;28.94;101067.66;4956582;29;20101;-86
2022/03/16 08:27:02;;;;;;;13.63;5.68;;;;;;;2.76;29.12;101071.06;4957033;29;20047;-87
2022/03/16 08:29:28;;;;;;;12.23;6.00;;;;;;;2.57;29.00;101061.75;4939221;29;20042;-87
2022/03/16 08:31:54;;;;;;;17.65;6.20;;;;;;;2.28;29.49;101067.59;4939293;29;20047;-86
2022/03/16 08:34:20;;;;;;;16.70;6.20;;;;;;;2.40;29.61;101062.06;4923972;29;20456;-86
2022/03/16 08:36:46;;;;;;;14.18;6.50;;;;;;;2.58;29.29;101064.34;4939210;29;20483;-87
2022/03/16 08:39:12;;;;;;;15.35;5.80;;;;;;;2.88;29.62;101059.34;4954978;29;20058;-86
2022/03/16 08:41:38;;;;;;;10.43;5.45;;;;;;;3.04;28.98;101038.75;4956230;29;20110;-86
2022/03/16 08:44:04;;;;;;;11.50;5.57;;;;;;;2.70;28.41;101049.16;4939173;29;20039;-87
2022/03/16 08:46:30;;;;;;;15.10;6.65;;;;;;;2.90;28.75;101039.06;4923212;29;20388;-85
2022/03/16 08:48:56;;;;;;;12.48;5.47;;;;;;;3.20;28.12;101041.94;4940466;28;20047;-86
2022/03/16 08:51:22;;;;;;;16.00;6.55;;;;;;;3.46;28.23;101052.81;4963892;29;20072;-85
2022/03/16 08:53:51;;;;;;;14.10;5.50;;;;;;;3.71;27.70;101054.84;4929975;29;20035;-85
2022/03/16 08:56:17;;;;;;;9.50;5.32;;;;;;;3.46;27.67;101042.22;4956924;29;20097;-86
2022/03/16 08:58:43;;;;;;;13.32;5.95;;;;;;;3.55;28.54;101057.84;4938948;29;20407;-87
2022/03/16 09:01:09;;;;;;;12.45;5.68;;;;;;;3.60;28.06;101048.03;4938997;29;20050;-86
2022/03/16 09:03:35;;;;;;;10.95;5.50;;;;;;;3.86;28.01;101057.09;4938477;29;20547;-87
2022/03/16 09:06:02;;;;;;;14.52;6.32;;;;;;;3.90;27.78;101046.41;4955867;29;20114;-87
2022/03/16 09:08:28;;;;;;;14.32;6.03;;;;;;;3.82;27.57;101044.88;4923015;29;20106;-88
2022/03/16 09:10:56;;;;;;;8.90;4.45;;;;;;;2.34;27.49;101051.66;4940413;29;20051;-85
2022/03/16 09:13:22;;;;;;;12.82;6.05;;;;;;;2.06;29.09;101052.13;4939169;29;20046;-88
2022/03/16 09:15:51;;;;;;;14.25;5.47;;;;;;;2.15;29.37;101049.34;4955294;28;20051;-86
2022/03/16 09:18:18;;;;;;;11.93;6.60;;;;;;;2.46;29.74;101058.47;4938423;29;20051;-87
2022/03/16 09:20:47;;;;;;;12.43;5.78;;;;;;;3.02;29.33;101038.81;4938420;29;20058;-86
2022/03/16 09:23:13;;;;;;;15.50;5.35;;;;;;;2.68;28.47;101057.13;4939152;29;20058;-85
2022/03/16 09:25:41;;;;;;;10.23;5.63;;;;;;;3.07;29.96;101044.84;4957222;29;20054;-87
2022/03/16 09:28:08;;;;;;;11.45;5.97;;;;;;;3.30;28.79;101051.38;4940366;29;20384;-87
2022/03/16 09:30:35;;;;;;;18.55;7.03;;;;;;;2.71;28.37;101048.25;4966197;29;20054;-85
2022/03/16 09:33:01;;;;;;;11.68;7.15;;;;;;;2.32;29.93;101056.06;4973033;29;20110;-83
2022/03/16 09:35:28;;;;;;;15.00;6.18;;;;;;;2.86;29.60;101040.06;4957323;29;20047;-83
2022/03/16 09:37:55;;;;;;;11.45;6.60;;;;;;;3.31;29.69;101047.84;4966023;29;20499;-85
2022/03/16 09:40:21;;;;;;;11.75;5.78;;;;;;;3.56;28.60;101033.13;4959766;29;20054;-85
2022/03/16 09:42:48;;;;;;;12.45;5.93;;;;;;;3.89;28.56;101036.72;4943265;29;20043;-86
2022/03/16 09:45:18;;;;;;;13.73;6.63;;;;;;;4.22;28.20;101043.84;4958102;29;20045;-87
2022/03/16 09:47:45;;;;;;;16.20;5.82;;;;;;;4.05;27.52;101028.41;4941502;29;20055;-88
2022/03/16 09:50:11;;;;;;;17.73;7.28;;;;;;;3.89;28.85;101042.03;4943835;29;20562;-89
2022/03/16 09:52:39;;;;;;;16.27;6.90;;;;;;;4.17;28.51;101030.72;4960394;29;20043;-89
2022/03/16 09:55:06;;;;;;;18.20;5.70;;;;;;;4.37;27.83;101030.19;4955801;29;20055;-83
2022/03/16 09:57:32;;;;;;;11.95;6.18;;;;;;;4.19;26.98;101039.50;4955522;29;20047;-89
2022/03/16 10:00:01;;;;;;;14.10;6.50;;;;;;;3.41;26.35;101038.78;4938303;29;20043;-87
2022/03/16 10:02:27;;;;;;;11.40;5.60;;;;;;;3.84;28.16;101032.47;4955266;29;20051;-88
2022/03/16 10:04:54;;;;;;;11.13;5.88;;;;;;;4.17;27.61;101038.66;4955062;29;20555;-88
2022/03/16 10:07:28;;;;;;;10.02;4.97;;;;;;;4.12;26.87;101043.22;4955493;29;20043;-89
2022/03/16 10:15:23;;;;;;;9.93;4.95;;;;;;;4.93;25.85;101043.59;4934670;29;20114;-87
2022/03/16 10:17:56;;;;;;;11.65;6.00;;;;;;;5.09;26.23;101028.97;4935549;29;20040;-88
2022/03/16 10:20:29;;;;;;;9.20;4.95;;;;;;;5.35;25.14;101025.50;4938759;29;20054;-87
2022/03/16 10:23:10;;;;;;;12.77;5.10;;;;;;;5.82;25.45;101035.47;4906913;29;20051;-86
2022/03/16 10:25:39;;;;;;;9.35;5.22;;;;;;;6.19;24.84;101036.91;4938784;29;20134;-87
2022/03/16 10:28:10;;;;;;;;;;;;;;;6.37;24.50;101027.44;4955424;29;20562;-85
2022/03/16 10:30:48;;;;;;;13.85;5.05;;;;;;;6.43;24.60;101020.13;4940723;29;20394;-83
2022/03/16 10:33:16;;;;;;;9.52;4.78;;;;;;;6.46;24.33;101029.75;4947285;29;20040;-86
2022/03/16 10:36:05;;;;;;;10.27;5.20;;;;;;;6.71;24.64;101029.75;4945027;29;20141;-85
2022/03/16 10:38:37;;;;;;;10.45;5.05;;;;;;;6.97;23.95;101028.75;4922715;29;20063;-85
2022/03/16 10:46:55;;;;;;;8.30;4.32;;;;;;;7.30;23.68;101027.44;4939274;29;20087;-84
2022/03/16 10:49:22;;;;;;;7.00;4.00;;;;;;;7.57;23.71;101031.72;4922066;29;20086;-85
2022/03/16 10:52:05;;;;;;;7.40;4.40;;;;;;;7.52;23.11;101016.81;4939355;29;20048;-85
2022/03/16 10:54:33;;;;;;;10.05;4.45;;;;;;;7.79;22.85;101014.81;4922788;29;20419;-85
2022/03/16 10:57:01;;;;;;;7.97;4.45;;;;;;;7.94;22.96;101020.41;4939265;29;20052;-87
2022/03/16 10:59:30;;;;;;;11.95;4.63;;;;;;;7.98;22.70;101020.22;4938720;29;20047;-86
2022/03/16 11:02:01;;;;;;;10.43;4.82;;;;;;;7.92;22.08;101016.94;4938974;29;20052;-86
2022/03/16 11:04:33;;;;;;;8.27;4.63;;;;;;;7.90;22.25;101017.03;4924325;29;20047;-85
2022/03/16 11:07:00;;;;;;;10.32;4.45;;;;;;;7.91;22.06;101008.09;4938511;29;20409;-86
2022/03/16 11:09:27;;;;;;;8.48;4.55;;;;;;;8.10;22.33;101002.84;4926018;29;20047;-87
2022/03/16 11:14:43;;;;;;;10.30;4.68;;;;;;;8.47;22.24;101002.13;4930019;29;20436;-87
2022/03/16 11:17:10;;;;;;;9.82;4.88;;;;;;;8.42;22.10;101013.91;4956437;29;20474;-86
2022/03/16 11:19:37;;;;;;;7.85;4.45;;;;;;;8.51;22.52;101001.06;4940420;29;20435;-88
2022/03/16 11:22:34;;;;;;;11.88;5.13;;;;;;;8.80;22.05;100998.88;4957571;29;20054;-87
2022/03/16 11:25:07;;;;;;;9.43;4.45;;;;;;;8.87;21.76;100994.09;4910497;29;20051;-87
2022/03/16 11:27:56;;;;;;;9.88;4.47;;;;;;;9.03;21.13;100999.56;4957100;29;20527;-87
2022/03/16 11:30:27;;;;;;;;;;;;;;;9.26;20.93;101002.03;4940227;29;20051;-86
2022/03/16 11:33:02;;;;;;;11.05;4.15;;;;;;;9.37;21.36;101009.53;4956437;29;19918;-87
2022/03/16 11:35:30;;;;;;;11.82;4.70;;;;;;;9.37;21.07;101002.38;4957580;29;20054;-86
2022/03/16 11:38:03;;;;;;;10.07;4.32;;;;;;;9.55;21.47;100994.38;4939855;29;20067;-86